Clallam Bay, Washington
Current Conditions -  °F | °C
As of 7:53 AM on Sunday 21 Dec 2014 (Local Time) from KUIL Reporting Station
Haze Haze  
Wind Chill: 51°   Ceiling: 3100
Heat Index: 51°   Visibility: 6mi
Dew Point: 49°   Wind: 12mph
Humidity: 92%   Direction: 250°WSW
Pressure: 29.87"   Gusts: NA
Location:  48.25°N, 124.26°W
Report Text: KUIL 211553Z AUTO 25010KT 6SM BR SCT016 BKN031 OVC050 11/09 A2987 RMK AO2 SLP116 T01060094 $
Loading
Personal Weather Stations






























Interactive Weather Map New forecast layout! Learn more

10-Day Weather Forecast

Advertisements
Track Severe Weather on mobile